1921 NOT_NAMED (1921166N17126)


IBTrACS version v04r00. Visit IBTrACS website for data access.
Please direct all questions to the IBTrACS Q and A forum

Storm track - Intensity - Wind Radii - Intensity Data - Source Data - All data

Summary Information

Storm ID 1921166N17126
Start Jun 14 22Z
Landfall Jun 15 10Z, Jun 17 21Z
End Jun 17 22Z
ATCF IDs
Track status Best track data.

Storm track plot

Map of storm track

Intensity plots

No Intensity information for this storm


Radial wind information

No radial wind information for this storm


Position and Intensity Table

BASIN ISO_TIME_________ NATURE LAT LON
degrees north degrees east
WP 1921-06-14 22:00:00 NR 16.60 126.00
WP 1921-06-15 00:00:00 NR 16.58 125.41
WP 03:00:00 NR 16.57 124.51
WP 06:00:00 NR 16.58 123.59
WP 09:00:00 NR 16.66 122.63
WP 10:00:00 NR 16.70 122.30
WP 12:00:00 NR 16.81 121.63
WP 15:00:00 NR 17.03 120.61
WP 18:00:00 NR 17.27 119.63
WP 21:00:00 NR 17.52 118.76
WP 22:00:00 NR 17.60 118.50
WP 1921-06-16 00:00:00 NR 17.72 118.06
WP 03:00:00 NR 17.90 117.52
WP 06:00:00 NR 18.07 117.07
WP 09:00:00 NR 18.24 116.64
WP 10:00:00 NR 18.30 116.50
WP 12:00:00 NR 18.42 116.16
WP 15:00:00 NR 18.61 115.65
WP 18:00:00 NR 18.80 115.14
WP 21:00:00 NR 19.02 114.66
WP 22:00:00 NR 19.10 114.50
WP 1921-06-17 00:00:00 NR 19.26 114.21
WP 03:00:00 NR 19.51 113.79
WP 06:00:00 NR 19.79 113.37
WP 09:00:00 NR 20.09 112.95
WP 10:00:00 NR 20.20 112.80
WP 12:00:00 NR 20.42 112.49
WP 15:00:00 NR 20.76 112.01
WP 18:00:00 NR 21.12 111.50
WP 21:00:00 NR 21.48 110.98
WP 22:00:00 NR 21.60 110.80

Source Information

Agency Information
USA
TOKYO
CMA
HKO
NEWDELHI
REUNION
BOM
NADI
WELLINGTON
DS824
TD9636 cons_worldwide_trop_cyclone_18710101-19891231-003:Line=6357
TD9635
NEUMANN
MLC

All available IBTrACS Data

SEASON BASIN SUBBASIN ISO_TIME_________ NATURE LAT LON DIST2LAND LANDFALL IFLAG USA SSHS TD9636 LAT TD9636 LON TD9636 STAGE STORM SPEED STORM DIR
Year degrees north degrees east km km 1 degrees north degrees east kts degrees
1921 WP MM 1921-06-14 22:00:00 NR 16.60 126.00 343 310 __________O___ -1 16.60 126.00 7 17 268
1921 WP MM 1921-06-15 00:00:00 NR 16.58 125.41 310 215 __________P___ -1 16.58 125.41 7 17 269
1921 WP MM 03:00:00 NR 16.57 124.51 215 121 __________P___ -1 16.57 124.51 7 17 270
1921 WP MM 06:00:00 NR 16.58 123.59 121 24 __________P___ -1 16.58 123.59 7 18 273
1921 WP MM 09:00:00 NR 16.66 122.63 24 10 __________P___ -1 16.66 122.63 7 19 275
1921 WP MM 10:00:00 NR 16.70 122.30 0 0 __________O___ -1 16.70 122.30 2 19 279
1921 WP MM 12:00:00 NR 16.81 121.63 0 0 __________P___ -1 16.81 121.63 2 20 281
1921 WP MM 15:00:00 NR 17.03 120.61 0 0 __________P___ -1 17.03 120.61 2 20 284
1921 WP MM 18:00:00 NR 17.27 119.63 81 81 __________P___ -1 17.27 119.63 2 18 286
1921 WP MM 21:00:00 NR 17.52 118.76 159 170 __________P___ -1 17.52 118.76 2 17 287
1921 WP MM 22:00:00 NR 17.60 118.50 190 190 __________O___ -1 17.60 118.50 3 14 287
1921 WP MM 1921-06-16 00:00:00 NR 17.72 118.06 233 244 __________P___ -1 17.72 118.06 3 12 288
1921 WP MM 03:00:00 NR 17.90 117.52 298 298 __________P___ -1 17.90 117.52 3 10 290
1921 WP MM 06:00:00 NR 18.07 117.07 343 353 __________P___ -1 18.07 117.07 3 9 292
1921 WP MM 09:00:00 NR 18.24 116.64 397 397 __________P___ -1 18.24 116.64 3 9 293
1921 WP MM 10:00:00 NR 18.30 116.50 409 409 __________O___ -1 18.30 116.50 4 10 291
1921 WP MM 12:00:00 NR 18.42 116.16 442 435 __________P___ -1 18.42 116.16 4 10 291
1921 WP MM 15:00:00 NR 18.61 115.65 435 400 __________P___ -1 18.61 115.65 4 10 292
1921 WP MM 18:00:00 NR 18.80 115.14 400 369 __________P___ -1 18.80 115.14 4 10 294
1921 WP MM 21:00:00 NR 19.02 114.66 369 349 __________P___ -1 19.02 114.66 4 10 296
1921 WP MM 22:00:00 NR 19.10 114.50 349 316 __________O___ -1 19.10 114.50 4 10 299
1921 WP MM 1921-06-17 00:00:00 NR 19.26 114.21 316 280 __________P___ -1 19.26 114.21 4 10 302
1921 WP MM 03:00:00 NR 19.51 113.79 280 238 __________P___ -1 19.51 113.79 4 10 304
1921 WP MM 06:00:00 NR 19.79 113.37 238 189 __________P___ -1 19.79 113.37 4 10 306
1921 WP MM 09:00:00 NR 20.09 112.95 189 175 __________P___ -1 20.09 112.95 4 10 307
1921 WP MM 10:00:00 NR 20.20 112.80 175 146 __________O___ -1 20.20 112.80 4 11 307
1921 WP MM 12:00:00 NR 20.42 112.49 146 88 __________P___ -1 20.42 112.49 4 11 307
1921 WP MM 15:00:00 NR 20.76 112.01 88 39 __________P___ -1 20.76 112.01 4 12 307
1921 WP MM 18:00:00 NR 21.12 111.50 39 0 __________P___ -1 21.12 111.50 4 12 307
1921 WP MM 21:00:00 NR 21.48 110.98 0 0 __________P___ -1 21.48 110.98 4 12 307
1921 WP MM 22:00:00 NR 21.60 110.80 0 __________O___ -1 21.60 110.80 4 12 307